createdAt,value
2018-05-12T00:01:51.212Z,98442.88
2018-05-12T00:04:02.372Z,98445.95
2018-05-12T00:06:13.578Z,98438.84
2018-05-12T00:08:24.698Z,98436.50
2018-05-12T00:10:35.946Z,98443.80
2018-05-12T00:12:47.103Z,98442.19
2018-05-12T00:14:58.384Z,98442.60
2018-05-12T00:17:09.510Z,98444.42
2018-05-12T00:19:20.743Z,98440.15
2018-05-12T00:21:31.985Z,98436.72
2018-05-12T00:23:43.182Z,98435.05
2018-05-12T00:25:54.488Z,98443.38
2018-05-12T00:28:05.764Z,98441.16
2018-05-12T00:30:16.924Z,98436.38
2018-05-12T00:32:28.231Z,98432.86
2018-05-12T00:34:39.412Z,98434.00
2018-05-12T00:36:50.792Z,98426.80
2018-05-12T00:39:02.052Z,98426.53
2018-05-12T00:41:13.346Z,98428.86
2018-05-12T00:43:24.548Z,98426.42
2018-05-12T00:45:35.761Z,98425.88
2018-05-12T00:47:46.973Z,98429.30
2018-05-12T00:49:58.090Z,98422.79
2018-05-12T00:52:09.235Z,98424.92
2018-05-12T00:54:20.413Z,98426.23
2018-05-12T00:56:31.602Z,98424.51
2018-05-12T00:58:42.827Z,98420.72
2018-05-12T01:00:54.059Z,98421.73
2018-05-12T01:03:05.280Z,98425.29
2018-05-12T01:05:16.627Z,98426.31
2018-05-12T01:07:27.983Z,98420.02
2018-05-12T01:09:39.186Z,98418.86
2018-05-12T01:11:50.373Z,98416.86
2018-05-12T01:14:01.672Z,98415.95
2018-05-12T01:16:12.902Z,98410.63
2018-05-12T01:18:24.115Z,98409.80
2018-05-12T01:20:35.276Z,98407.39
2018-05-12T01:22:46.538Z,98396.63
2018-05-12T01:24:57.753Z,98401.20
2018-05-12T01:27:08.908Z,98398.57
2018-05-12T01:29:20.160Z,98394.89
2018-05-12T01:31:31.323Z,98395.97
2018-05-12T01:33:42.466Z,98393.44
2018-05-12T01:35:53.724Z,98391.50
2018-05-12T01:38:04.928Z,98389.48
2018-05-12T01:40:16.123Z,98390.14
2018-05-12T01:42:27.295Z,98386.59
2018-05-12T01:44:38.528Z,98384.73
2018-05-12T01:46:50.128Z,98384.52
2018-05-12T01:49:01.303Z,98387.43
2018-05-12T01:51:12.634Z,98387.54
2018-05-12T01:53:23.897Z,98381.36
2018-05-12T01:55:35.235Z,98388.11
2018-05-12T01:57:46.595Z,98388.00
2018-05-12T01:59:58.211Z,98395.47
2018-05-12T02:02:09.383Z,98389.84
2018-05-12T02:04:20.636Z,98396.90
2018-05-12T02:06:31.964Z,98400.48
2018-05-12T02:08:43.211Z,98395.05
2018-05-12T02:10:54.430Z,98392.51
2018-05-12T02:13:05.655Z,98395.94
2018-05-12T02:15:16.839Z,98396.59
2018-05-12T02:17:27.994Z,98399.94
2018-05-12T02:19:39.118Z,98398.48
2018-05-12T02:21:50.382Z,98408.58
2018-05-12T02:24:01.633Z,98408.66
2018-05-12T02:26:12.747Z,98411.55
2018-05-12T02:28:24.160Z,98416.16
2018-05-12T02:30:35.329Z,98420.38
2018-05-12T02:32:46.619Z,98427.12
2018-05-12T02:34:57.780Z,98430.61
2018-05-12T02:37:08.928Z,98419.48
2018-05-12T02:39:20.212Z,98426.47
2018-05-12T02:41:31.371Z,98420.44
2018-05-12T02:43:42.652Z,98420.36
2018-05-12T02:45:53.838Z,98424.68
2018-05-12T02:48:05.095Z,98429.05
2018-05-12T02:50:16.244Z,98424.68
2018-05-12T02:52:27.435Z,98423.14
2018-05-12T02:54:38.794Z,98416.37
2018-05-12T02:56:50.046Z,98421.73
2018-05-12T02:59:01.216Z,98416.72
2018-05-12T03:01:12.495Z,98411.52
2018-05-12T03:03:23.708Z,98414.17
2018-05-12T03:05:34.926Z,98408.61
2018-05-12T03:07:46.039Z,98411.49
2018-05-12T03:09:57.266Z,98413.63
2018-05-12T03:12:08.552Z,98413.39
2018-05-12T03:14:19.717Z,98409.56
2018-05-12T03:16:31.069Z,98416.33
2018-05-12T03:18:42.250Z,98418.51
2018-05-12T03:20:53.542Z,98421.16
2018-05-12T03:23:04.754Z,98420.04
2018-05-12T03:25:15.865Z,98418.50
2018-05-12T03:27:27.221Z,98419.28
2018-05-12T03:29:38.365Z,98417.80
2018-05-12T03:31:49.519Z,98415.44
2018-05-12T03:34:00.663Z,98416.27
2018-05-12T03:36:11.817Z,98420.56
2018-05-12T03:38:22.983Z,98423.70
2018-05-12T03:40:34.099Z,98420.27
2018-05-12T03:42:45.306Z,98425.18
2018-05-12T03:44:56.515Z,98427.31
2018-05-12T03:47:07.702Z,98425.55
2018-05-12T03:49:18.914Z,98427.42
2018-05-12T03:51:30.074Z,98430.34
2018-05-12T03:53:41.259Z,98425.48
2018-05-12T03:55:52.371Z,98426.72
2018-05-12T03:58:03.526Z,98429.92
2018-05-12T04:00:14.690Z,98427.48
2018-05-12T04:02:25.827Z,98428.60
2018-05-12T04:04:49.419Z,98437.87
2018-05-12T04:07:13.831Z,98438.36
2018-05-12T04:09:37.165Z,98433.03
2018-05-12T04:12:00.253Z,98434.62
2018-05-12T04:14:11.555Z,98433.39
2018-05-12T04:16:22.793Z,98433.79
2018-05-12T04:18:33.964Z,98441.90
2018-05-12T04:20:45.123Z,98438.18
2018-05-12T04:22:56.339Z,98444.02
2018-05-12T04:25:07.548Z,98441.13
2018-05-12T04:27:18.690Z,98450.72
2018-05-12T04:29:29.866Z,98441.95
2018-05-12T04:31:40.975Z,98443.48
2018-05-12T04:33:52.115Z,98445.31
2018-05-12T04:36:03.212Z,98442.00
2018-05-12T04:38:14.346Z,98446.84
2018-05-12T04:40:25.583Z,98446.95
2018-05-12T04:42:36.861Z,98443.88
2018-05-12T04:44:47.970Z,98448.55
2018-05-12T04:46:59.158Z,98444.25
2018-05-12T04:49:10.295Z,98448.76
2018-05-12T04:51:21.438Z,98450.18
2018-05-12T04:53:32.559Z,98437.48
2018-05-12T04:55:43.707Z,98438.22
2018-05-12T04:57:54.882Z,98433.75
2018-05-12T05:00:06.014Z,98433.71
2018-05-12T05:02:17.220Z,98427.14
2018-05-12T05:04:28.399Z,98432.73
2018-05-12T05:06:39.605Z,98434.83
2018-05-12T05:08:50.807Z,98437.85
2018-05-12T05:11:01.967Z,98436.62
2018-05-12T05:13:13.261Z,98434.20
2018-05-12T05:15:24.448Z,98435.58
2018-05-12T05:17:35.582Z,98435.08
2018-05-12T05:19:46.818Z,98435.76
2018-05-12T05:21:57.934Z,98435.92
2018-05-12T05:24:09.089Z,98430.14
2018-05-12T05:26:20.233Z,98428.78
2018-05-12T05:28:31.408Z,98425.59
2018-05-12T05:30:42.526Z,98431.97
2018-05-12T05:32:53.691Z,98428.14
2018-05-12T05:35:04.826Z,98432.48
2018-05-12T05:37:16.022Z,98426.74
2018-05-12T05:39:27.366Z,98418.34
2018-05-12T05:41:38.674Z,98419.26
2018-05-12T05:43:49.786Z,98420.81
2018-05-12T05:46:00.895Z,98419.30
2018-05-12T05:48:12.039Z,98416.64
2018-05-12T05:50:23.194Z,98412.53
2018-05-12T05:52:34.307Z,98404.56
2018-05-12T05:54:57.395Z,98403.23
2018-05-12T05:59:38.899Z,98393.15
2018-05-12T06:01:50.071Z,98389.54
2018-05-12T06:04:01.308Z,98380.81
2018-05-12T06:06:12.621Z,98386.40
2018-05-12T06:08:23.835Z,98382.38
2018-05-12T06:10:35.105Z,98388.39
2018-05-12T06:12:46.298Z,98385.99
2018-05-12T06:14:57.499Z,98380.22
2018-05-12T06:17:08.647Z,98383.16
2018-05-12T06:19:19.834Z,98384.67
2018-05-12T06:21:31.037Z,98378.81
2018-05-12T06:23:42.190Z,98382.28
2018-05-12T06:25:53.363Z,98383.69
2018-05-12T06:28:04.601Z,98388.80
2018-05-12T06:30:16.553Z,98386.30
2018-05-12T06:32:27.711Z,98386.34
2018-05-12T06:34:38.816Z,98388.08
2018-05-12T06:36:49.932Z,98390.64
2018-05-12T06:39:01.079Z,98388.08
2018-05-12T06:41:12.220Z,98387.05
2018-05-12T06:43:23.470Z,98394.78
2018-05-12T06:45:34.624Z,98391.42
2018-05-12T06:47:45.936Z,98400.93
2018-05-12T06:49:57.156Z,98403.72
2018-05-12T06:52:08.262Z,98399.59
2018-05-12T06:54:19.470Z,98398.77
2018-05-12T06:56:30.673Z,98398.45
2018-05-12T06:58:41.840Z,98394.53
2018-05-12T07:00:52.983Z,98397.53
2018-05-12T07:03:04.147Z,98393.58
2018-05-12T07:05:15.442Z,98393.87
2018-05-12T07:07:26.598Z,98393.87
2018-05-12T07:09:37.852Z,98392.99
2018-05-12T07:11:49.074Z,98394.99
2018-05-12T07:14:00.217Z,98395.43
2018-05-12T07:16:11.431Z,98398.80
2018-05-12T07:18:22.597Z,98395.59
2018-05-12T07:20:33.824Z,98390.34
2018-05-12T07:22:44.976Z,98384.55
2018-05-12T07:24:56.243Z,98389.43
2018-05-12T07:27:07.348Z,98393.14
2018-05-12T07:29:18.548Z,98383.94
2018-05-12T07:31:30.693Z,98380.63
2018-05-12T07:33:42.034Z,98379.47
2018-05-12T07:35:53.288Z,98374.87
2018-05-12T07:38:04.535Z,98369.33
2018-05-12T07:40:15.841Z,98367.75
2018-05-12T07:42:27.004Z,98365.74
2018-05-12T07:44:38.350Z,98368.88
2018-05-12T07:46:49.667Z,98357.47
2018-05-12T07:49:00.859Z,98358.55
2018-05-12T07:51:12.019Z,98353.08
2018-05-12T07:53:23.202Z,98357.70
2018-05-12T07:55:34.338Z,98345.59
2018-05-12T07:57:45.506Z,98350.55
2018-05-12T07:59:56.686Z,98348.88
2018-05-12T08:02:07.917Z,98339.81
2018-05-12T08:04:19.078Z,98337.20
2018-05-12T08:06:30.299Z,98338.50
2018-05-12T08:08:41.610Z,98340.34
2018-05-12T08:10:52.710Z,98335.34
2018-05-12T08:13:04.000Z,98334.89
2018-05-12T08:15:15.133Z,98334.11
2018-05-12T08:17:26.287Z,98333.92
2018-05-12T08:19:37.538Z,98336.70
2018-05-12T08:21:49.655Z,98335.27
2018-05-12T08:24:00.839Z,98334.25
2018-05-12T08:26:12.152Z,98325.00
2018-05-12T08:28:23.319Z,98327.39
2018-05-12T08:30:34.535Z,98323.64
2018-05-12T08:32:45.820Z,98323.20
2018-05-12T08:34:56.991Z,98320.98
2018-05-12T08:37:08.139Z,98321.27
2018-05-12T08:39:19.296Z,98319.48
2018-05-12T08:41:30.459Z,98309.13
2018-05-12T08:43:42.587Z,98303.59
2018-05-12T08:45:53.868Z,98308.77
2018-05-12T08:48:05.000Z,98300.19
2018-05-12T08:50:16.202Z,98301.23
2018-05-12T08:52:27.367Z,98295.07
2018-05-12T08:54:38.495Z,98296.20
2018-05-12T08:56:49.665Z,98291.28
2018-05-12T08:59:00.780Z,98289.42
2018-05-12T09:01:12.013Z,98291.22
2018-05-12T09:03:23.181Z,98287.09
2018-05-12T09:05:35.138Z,98285.25
2018-05-12T09:07:49.089Z,98276.71
2018-05-12T09:10:00.268Z,98282.66
2018-05-12T09:12:11.386Z,98284.83
2018-05-12T09:14:25.322Z,98283.38
2018-05-12T09:16:36.471Z,98285.09
2018-05-12T09:18:47.636Z,98282.69
2018-05-12T09:20:59.877Z,98283.95
2018-05-12T09:23:11.055Z,98280.14
2018-05-12T09:25:22.284Z,98278.36
2018-05-12T09:27:33.454Z,98275.65
2018-05-12T09:29:44.661Z,98272.70
2018-05-12T09:31:55.856Z,98269.66
2018-05-12T09:34:06.990Z,98268.55
2018-05-12T09:36:18.251Z,98265.14
2018-05-12T09:38:29.375Z,98257.10
2018-05-12T09:40:40.552Z,98264.59
2018-05-12T09:42:51.666Z,98261.88
2018-05-12T09:45:02.812Z,98263.98
2018-05-12T09:47:13.965Z,98255.09
2018-05-12T09:49:25.162Z,98252.18
2018-05-12T09:51:36.391Z,98256.85
2018-05-12T09:53:49.271Z,98248.17
2018-05-12T09:56:00.525Z,98248.78
2018-05-12T09:58:11.695Z,98240.31
2018-05-12T10:00:24.721Z,98237.17
2018-05-12T10:02:35.884Z,98236.48
2018-05-12T10:04:47.061Z,98234.67
2018-05-12T10:06:58.232Z,98240.17
2018-05-12T10:09:09.432Z,98231.23
2018-05-12T10:11:20.579Z,98230.67
2018-05-12T10:13:31.811Z,98217.13
2018-05-12T10:15:45.729Z,98216.89
2018-05-12T10:17:56.884Z,98212.18
2018-05-12T10:20:08.039Z,98213.61
2018-05-12T10:22:19.174Z,98206.19
2018-05-12T10:24:30.436Z,98203.83
2018-05-12T10:26:41.605Z,98205.43
2018-05-12T10:28:52.871Z,98199.65
2018-05-12T10:31:04.098Z,98196.43
2018-05-12T10:33:15.249Z,98197.92
2018-05-12T10:35:41.375Z,98190.33
2018-05-12T10:37:52.607Z,98193.64
2018-05-12T10:40:03.755Z,98185.94
2018-05-12T10:42:14.881Z,98183.53
2018-05-12T10:44:26.078Z,98181.00
2018-05-12T10:46:38.280Z,98184.25
2018-05-12T10:48:49.386Z,98184.23
2018-05-12T10:51:01.492Z,98169.63
2018-05-12T10:53:12.639Z,98170.94
2018-05-12T10:55:23.759Z,98172.06
2018-05-12T10:57:35.027Z,98162.49
2018-05-12T10:59:46.160Z,98158.03
2018-05-12T11:01:57.360Z,98147.55
2018-05-12T11:04:08.583Z,98152.69
2018-05-12T11:06:19.773Z,98147.39
2018-05-12T11:08:30.930Z,98147.00
2018-05-12T11:10:42.102Z,98140.52
2018-05-12T11:12:53.258Z,98133.83
2018-05-12T11:15:04.503Z,98133.59
2018-05-12T11:17:15.739Z,98124.53
2018-05-12T11:19:27.091Z,98130.91
2018-05-12T11:21:40.289Z,98132.83
2018-05-12T11:23:53.392Z,98123.39
2018-05-12T11:26:04.579Z,98119.56
2018-05-12T11:28:15.745Z,98108.13
2018-05-12T11:30:26.883Z,98106.09
2018-05-12T11:32:38.870Z,98103.52
2018-05-12T11:34:50.065Z,98098.37
2018-05-12T11:37:01.304Z,98095.94
2018-05-12T11:39:12.507Z,98088.55
2018-05-12T11:41:23.660Z,98077.53
2018-05-12T11:43:34.951Z,98073.56
2018-05-12T11:45:46.218Z,98076.41
2018-05-12T11:47:57.362Z,98070.67
2018-05-12T11:50:08.818Z,98068.70
2018-05-12T11:52:22.683Z,98072.00
2018-05-12T11:54:33.914Z,98075.79
2018-05-12T11:56:45.195Z,98069.53
2018-05-12T11:58:56.434Z,98063.70
2018-05-12T12:01:07.582Z,98071.30
2018-05-12T12:03:18.788Z,98059.69
2018-05-12T12:05:29.988Z,98055.91
2018-05-12T12:07:41.125Z,98056.31
2018-05-12T12:09:52.319Z,98047.68
2018-05-12T12:12:03.534Z,98048.50
2018-05-12T12:14:14.706Z,98051.77
2018-05-12T12:16:25.934Z,98047.25
2018-05-12T12:18:37.055Z,98035.34
2018-05-12T12:20:48.236Z,98029.39
2018-05-12T12:22:59.419Z,98027.66
2018-05-12T12:25:10.644Z,98027.05
2018-05-12T12:27:21.814Z,98028.02
2018-05-12T12:29:33.006Z,98030.28
2018-05-12T12:31:44.191Z,98024.34
2018-05-12T12:33:55.333Z,98022.13
2018-05-12T12:36:06.482Z,98022.32
2018-05-12T12:38:17.658Z,98019.84
2018-05-12T12:40:28.810Z,98016.24
2018-05-12T12:42:39.958Z,98014.50
2018-05-12T12:44:51.202Z,98010.83
2018-05-12T12:47:02.390Z,98009.20
2018-05-12T12:49:13.647Z,98004.34
2018-05-12T12:51:27.666Z,98011.94
2018-05-12T12:53:38.818Z,97997.15
2018-05-12T12:55:49.986Z,97994.92
2018-05-12T12:58:01.195Z,97997.37
2018-05-12T13:00:12.337Z,97993.36
2018-05-12T13:02:23.494Z,97991.00
2018-05-12T13:04:34.741Z,97990.52
2018-05-12T13:06:46.042Z,97988.25
2018-05-12T13:08:57.247Z,97983.81
2018-05-12T13:11:09.750Z,97984.14
2018-05-12T13:13:20.930Z,97973.58
2018-05-12T13:15:32.090Z,97974.28
2018-05-12T13:17:43.310Z,97964.20
2018-05-12T13:19:54.476Z,97959.80
2018-05-12T13:22:05.745Z,97960.20
2018-05-12T13:24:16.938Z,97950.98
2018-05-12T13:26:28.126Z,97956.31
2018-05-12T13:28:39.372Z,97950.97
2018-05-12T13:30:50.659Z,97944.63
2018-05-12T13:33:01.775Z,97941.94
2018-05-12T13:35:13.039Z,97941.41
2018-05-12T13:37:24.179Z,97941.12
2018-05-12T13:39:35.350Z,97940.72
2018-05-12T13:41:46.514Z,97941.23
2018-05-12T13:43:57.687Z,97933.74
2018-05-12T13:46:08.962Z,97934.95
2018-05-12T13:48:20.123Z,97932.51
2018-05-12T13:50:31.275Z,97933.84
2018-05-12T13:52:42.470Z,97931.50
2018-05-12T13:54:53.701Z,97934.86
2018-05-12T13:57:04.922Z,97927.91
2018-05-12T13:59:16.075Z,97930.64
2018-05-12T14:01:27.344Z,97923.80
2018-05-12T14:03:39.231Z,97922.06
2018-05-12T14:05:51.334Z,97926.03
2018-05-12T14:08:02.488Z,97919.30
2018-05-12T14:10:13.642Z,97919.78
2018-05-12T14:12:25.726Z,97913.52
2018-05-12T14:14:36.841Z,97919.27
2018-05-12T14:16:47.994Z,97908.70
2018-05-12T14:18:59.192Z,97907.70
2018-05-12T14:21:10.335Z,97909.95
2018-05-12T14:23:21.521Z,97907.91
2018-05-12T14:25:32.751Z,97910.45
2018-05-12T14:27:43.957Z,97909.43
2018-05-12T14:29:55.227Z,97902.05
2018-05-12T14:32:06.466Z,97901.76
2018-05-12T14:34:17.635Z,97901.64
2018-05-12T14:36:30.036Z,97896.02
2018-05-12T14:38:41.199Z,97888.42
2018-05-12T14:40:52.334Z,97888.72
2018-05-12T14:43:03.473Z,97889.53
2018-05-12T14:45:14.761Z,97888.52
2018-05-12T14:47:25.959Z,97881.23
2018-05-12T14:49:37.365Z,97889.70
2018-05-12T14:51:48.549Z,97881.58
2018-05-12T14:54:00.257Z,97880.75
2018-05-12T14:56:11.632Z,97873.06
2018-05-12T14:58:22.902Z,97880.81
2018-05-12T15:00:34.067Z,97878.08
2018-05-12T15:02:45.304Z,97880.23
2018-05-12T15:04:56.471Z,97874.16
2018-05-12T15:07:07.733Z,97869.48
2018-05-12T15:09:19.067Z,97871.76
2018-05-12T15:11:30.202Z,97863.55
2018-05-12T15:13:41.477Z,97864.77
2018-05-12T15:15:52.654Z,97859.35
2018-05-12T15:18:03.802Z,97855.02
2018-05-12T15:20:14.920Z,97853.61
2018-05-12T15:22:26.105Z,97850.73
2018-05-12T15:24:40.997Z,97844.87
2018-05-12T15:26:53.319Z,97847.64
2018-05-12T15:29:04.607Z,97842.92
2018-05-12T15:31:16.071Z,97839.62
2018-05-12T15:33:27.256Z,97845.69
2018-05-12T15:35:38.848Z,97846.41
2018-05-12T15:37:50.374Z,97839.95
2018-05-12T15:40:01.552Z,97830.44
2018-05-12T15:42:12.758Z,97831.36
2018-05-12T15:44:23.962Z,97832.28
2018-05-12T15:46:35.135Z,97824.88
2018-05-12T15:48:46.448Z,97826.55
2018-05-12T15:50:57.614Z,97827.56
2018-05-12T15:53:08.768Z,97829.31
2018-05-12T15:55:19.890Z,97827.35
2018-05-12T15:57:32.491Z,97828.06
2018-05-12T15:59:43.623Z,97821.50
2018-05-12T16:01:54.748Z,97818.75
2018-05-12T16:04:06.009Z,97821.07
2018-05-12T16:06:17.316Z,97819.73
2018-05-12T16:08:28.695Z,97814.82
2018-05-12T16:10:39.885Z,97810.23
2018-05-12T16:12:51.059Z,97807.75
2018-05-12T16:15:02.247Z,97806.64
2018-05-12T16:17:13.365Z,97805.09
2018-05-12T16:19:24.535Z,97807.06
2018-05-12T16:21:35.679Z,97804.09
2018-05-12T16:23:46.877Z,97803.88
2018-05-12T16:25:58.010Z,97798.24
2018-05-12T16:28:09.394Z,97795.57
2018-05-12T16:30:20.566Z,97794.42
2018-05-12T16:32:31.796Z,97800.08
2018-05-12T16:34:42.935Z,97800.59
2018-05-12T16:36:54.085Z,97795.77
2018-05-12T16:39:05.223Z,97798.74
2018-05-12T16:41:16.378Z,97794.92
2018-05-12T16:43:27.515Z,97787.26
2018-05-12T16:45:38.687Z,97792.73
2018-05-12T16:47:49.826Z,97795.09
2018-05-12T16:50:00.957Z,97793.88
2018-05-12T16:52:12.118Z,97793.52
2018-05-12T16:54:23.448Z,97793.11
2018-05-12T16:56:34.557Z,97793.11
2018-05-12T16:58:45.750Z,97783.36
2018-05-12T17:00:56.870Z,97783.79
2018-05-12T17:03:08.062Z,97787.51
2018-05-12T17:05:19.214Z,97782.30
2018-05-12T17:07:30.469Z,97784.02
2018-05-12T17:09:41.578Z,97781.47
2018-05-12T17:11:52.754Z,97782.07
2018-05-12T17:14:03.924Z,97782.09
2018-05-12T17:16:15.054Z,97777.23
2018-05-12T17:18:26.218Z,97783.98
2018-05-12T17:20:37.496Z,97782.36
2018-05-12T17:22:48.648Z,97782.58
2018-05-12T17:24:59.883Z,97779.48
2018-05-12T17:27:11.007Z,97780.06
2018-05-12T17:29:22.365Z,97780.56
2018-05-12T17:31:33.544Z,97774.73
2018-05-12T17:33:44.741Z,97784.52
2018-05-12T17:35:56.027Z,97784.50
2018-05-12T17:38:07.195Z,97780.17
2018-05-12T17:40:18.402Z,97776.78
2018-05-12T17:42:29.555Z,97777.79
2018-05-12T17:44:40.783Z,97777.84
2018-05-12T17:46:51.962Z,97779.65
2018-05-12T17:49:03.207Z,97777.48
2018-05-12T17:51:14.349Z,97778.46
2018-05-12T17:53:25.564Z,97776.59
2018-05-12T17:55:36.840Z,97778.13
2018-05-12T17:57:47.963Z,97777.23
2018-05-12T17:59:59.147Z,97776.86
2018-05-12T18:02:10.347Z,97779.88
2018-05-12T18:04:21.488Z,97783.00
2018-05-12T18:06:32.685Z,97785.22
2018-05-12T18:08:43.873Z,97783.67
2018-05-12T18:10:55.027Z,97791.45
2018-05-12T18:13:06.141Z,97785.50
2018-05-12T18:15:17.294Z,97784.73
2018-05-12T18:17:28.580Z,97790.80
2018-05-12T18:19:40.651Z,97789.72
2018-05-12T18:21:51.857Z,97785.40
2018-05-12T18:24:02.983Z,97787.67
2018-05-12T18:26:14.134Z,97784.77
2018-05-12T18:28:25.324Z,97777.92
2018-05-12T18:30:36.506Z,97778.19
2018-05-12T18:32:47.682Z,97777.72
2018-05-12T18:34:58.850Z,97776.95
2018-05-12T18:37:10.032Z,97771.91
2018-05-12T18:39:21.229Z,97770.02
2018-05-12T18:41:32.409Z,97778.91
2018-05-12T18:43:43.595Z,97777.84
2018-05-12T18:45:54.750Z,97783.66
2018-05-12T18:48:05.962Z,97782.30
2018-05-12T18:50:17.065Z,97780.80
2018-05-12T18:52:28.311Z,97780.70
2018-05-12T18:54:39.501Z,97781.61
2018-05-12T18:56:50.705Z,97782.84
2018-05-12T18:59:01.937Z,97785.82
2018-05-12T19:01:13.075Z,97791.19
2018-05-12T19:03:24.368Z,97789.17
2018-05-12T19:05:35.562Z,97790.23
2018-05-12T19:07:46.683Z,97788.58
2018-05-12T19:09:57.902Z,97795.67
2018-05-12T19:12:09.080Z,97800.44
2018-05-12T19:14:20.263Z,97795.56
2018-05-12T19:16:31.440Z,97806.20
2018-05-12T19:18:42.606Z,97806.72
2018-05-12T19:20:53.857Z,97808.23
2018-05-12T19:23:04.990Z,97804.14
2018-05-12T19:25:16.370Z,97799.53
2018-05-12T19:27:27.507Z,97802.26
2018-05-12T19:29:38.656Z,97797.80
2018-05-12T19:31:49.906Z,97797.91
2018-05-12T19:34:01.118Z,97800.13
2018-05-12T19:36:12.351Z,97806.50
2018-05-12T19:38:23.545Z,97797.83
2018-05-12T19:40:34.692Z,97803.44
2018-05-12T19:42:45.826Z,97798.02
2018-05-12T19:44:56.995Z,97804.27
2018-05-12T19:47:08.174Z,97804.87
2018-05-12T19:49:19.312Z,97809.47
2018-05-12T19:51:30.604Z,97805.06
2018-05-12T19:53:41.749Z,97809.23
2018-05-12T19:55:52.881Z,97804.27
2018-05-12T19:58:04.125Z,97798.36
2018-05-12T20:00:15.263Z,97798.06
2018-05-12T20:02:26.482Z,97798.64
2018-05-12T20:04:37.633Z,97797.79
2018-05-12T20:06:48.785Z,97798.61
2018-05-12T20:08:59.914Z,97798.27
2018-05-12T20:11:11.077Z,97809.29
2018-05-12T20:13:22.262Z,97802.84
2018-05-12T20:15:33.395Z,97801.95
2018-05-12T20:17:44.653Z,97797.86
2018-05-12T20:19:55.856Z,97798.47
2018-05-12T20:22:07.027Z,97800.14
2018-05-12T20:24:18.291Z,97803.13
2018-05-12T20:26:29.419Z,97803.94
2018-05-12T20:28:40.900Z,97800.98
2018-05-12T20:30:52.084Z,97805.59
2018-05-12T20:33:03.279Z,97796.59
2018-05-12T20:35:14.585Z,97797.87
2018-05-12T20:37:25.857Z,97799.66
2018-05-12T20:39:36.978Z,97796.19
2018-05-12T20:41:48.119Z,97796.02
2018-05-12T20:43:59.290Z,97794.59
2018-05-12T20:46:10.474Z,97794.58
2018-05-12T20:48:21.631Z,97798.44
2018-05-12T20:50:32.825Z,97801.45
2018-05-12T20:52:44.018Z,97797.23
2018-05-12T20:54:55.182Z,97792.96
2018-05-12T20:57:06.836Z,97800.09
2018-05-12T20:59:17.978Z,97799.08
2018-05-12T21:01:29.172Z,97797.11
2018-05-12T21:03:40.410Z,97798.55
2018-05-12T21:05:51.575Z,97794.17
2018-05-12T21:08:02.799Z,97786.59
2018-05-12T21:10:13.976Z,97788.89
2018-05-12T21:12:25.171Z,97785.51
2018-05-12T21:14:36.409Z,97784.45
2018-05-12T21:16:47.610Z,97782.84
2018-05-12T21:18:58.746Z,97778.52
2018-05-12T21:21:09.912Z,97772.72
2018-05-12T21:23:21.082Z,97767.50
2018-05-12T21:25:32.238Z,97770.44
2018-05-12T21:27:43.383Z,97762.17
2018-05-12T21:29:54.659Z,97770.64
2018-05-12T21:32:05.920Z,97762.81
2018-05-12T21:34:17.071Z,97766.70
2018-05-12T21:36:28.374Z,97764.30
2018-05-12T21:38:39.512Z,97765.55
2018-05-12T21:40:50.684Z,97767.63
2018-05-12T21:43:01.839Z,97769.44
2018-05-12T21:45:12.971Z,97762.61
2018-05-12T21:47:24.202Z,97766.63
2018-05-12T21:49:35.379Z,97762.03
2018-05-12T21:51:46.733Z,97765.17
2018-05-12T21:53:57.876Z,97764.98
2018-05-12T21:56:09.000Z,97765.06
2018-05-12T21:58:20.293Z,97759.95
2018-05-12T22:00:31.486Z,97771.72
2018-05-12T22:02:42.760Z,97770.25
2018-05-12T22:04:54.018Z,97771.06
2018-05-12T22:07:05.264Z,97767.37
2018-05-12T22:09:16.626Z,97771.73
2018-05-12T22:11:27.815Z,97769.84
2018-05-12T22:13:39.024Z,97771.89
2018-05-12T22:15:50.170Z,97777.08
2018-05-12T22:18:01.358Z,97780.64
2018-05-12T22:20:12.484Z,97781.66
2018-05-12T22:22:23.590Z,97779.36
2018-05-12T22:24:34.751Z,97784.48
2018-05-12T22:26:45.902Z,97787.21
2018-05-12T22:28:57.159Z,97785.31
2018-05-12T22:31:08.439Z,97791.50
2018-05-12T22:33:19.598Z,97793.21
2018-05-12T22:35:30.766Z,97793.30
2018-05-12T22:37:41.912Z,97796.44
2018-05-12T22:39:53.195Z,97800.22
2018-05-12T22:42:04.340Z,97806.84
2018-05-12T22:44:15.471Z,97804.02
2018-05-12T22:46:26.675Z,97800.28
2018-05-12T22:48:37.835Z,97797.09
2018-05-12T22:50:48.991Z,97797.64
2018-05-12T22:53:00.121Z,97798.31
2018-05-12T22:55:11.281Z,97794.09
2018-05-12T22:57:22.535Z,97788.59
2018-05-12T22:59:33.673Z,97783.95
2018-05-12T23:01:44.869Z,97792.50
2018-05-12T23:03:56.116Z,97791.16
2018-05-12T23:06:07.282Z,97798.16
2018-05-12T23:08:18.439Z,97796.44
2018-05-12T23:10:29.631Z,97798.34
2018-05-12T23:12:40.857Z,97794.70
2018-05-12T23:14:51.986Z,97790.11
2018-05-12T23:17:03.135Z,97791.15
2018-05-12T23:19:14.286Z,97789.91
2018-05-12T23:21:25.476Z,97794.12
2018-05-12T23:23:36.654Z,97793.89
2018-05-12T23:25:47.802Z,97793.01
2018-05-12T23:27:59.100Z,97790.58
2018-05-12T23:30:10.395Z,97779.06
2018-05-12T23:32:21.549Z,97778.94
2018-05-12T23:34:32.690Z,97784.07
2018-05-12T23:36:43.805Z,97792.34
2018-05-12T23:38:54.927Z,97790.62
2018-05-12T23:41:06.070Z,97782.29
2018-05-12T23:43:17.193Z,97788.44
2018-05-12T23:45:28.310Z,97784.05
2018-05-12T23:47:39.500Z,97781.94
2018-05-12T23:49:50.851Z,97777.58
2018-05-12T23:52:01.964Z,97775.78
2018-05-12T23:54:13.147Z,97774.97
2018-05-12T23:56:24.263Z,97777.24
2018-05-12T23:58:35.456Z,97782.73
